Time;durP1;ratioP1;P1;durP2;ratioP2;P2;SDS_P1;SDS_P2;PMS_P1;PMS_P2;Temp;Humidity;BMP_temperature;BMP_pressure;BME280_temperature;BME280_humidity;BME280_pressure;Samples;Min_cycle;Max_cycle;Signal;HPM_P1;HPM_P2
2023/07/09 00:00:19;;;;;;;4.90;2.63;;;21.50;99.90;;;22.08;100.00;101148.69;5220985;28;20079;-53
2023/07/09 00:02:52;;;;;;;5.43;3.10;;;21.50;99.90;;;22.09;100.00;101151.38;5221740;28;20052;-52
2023/07/09 00:05:25;;;;;;;4.68;2.60;;;21.50;99.90;;;22.09;100.00;101150.50;5221242;28;20148;-52
2023/07/09 00:08:00;;;;;;;5.50;2.88;;;21.50;99.90;;;22.07;100.00;101152.25;5221409;28;20055;-51
2023/07/09 00:10:34;;;;;;;4.70;2.90;;;21.50;99.90;;;22.06;100.00;101156.69;5221194;28;20383;-53
2023/07/09 00:13:06;;;;;;;5.05;2.50;;;21.50;99.90;;;22.03;100.00;101150.50;5221052;28;20052;-53
2023/07/09 00:15:39;;;;;;;4.95;2.80;;;21.40;99.90;;;22.01;100.00;101146.97;5213727;28;20059;-52
2023/07/09 00:18:11;;;;;;;6.80;3.20;;;21.40;99.90;;;21.99;100.00;101148.78;5220399;28;20044;-52
2023/07/09 00:20:44;;;;;;;5.28;2.72;;;21.40;99.90;;;21.97;100.00;101150.53;5222305;28;20592;-52
2023/07/09 00:23:21;;;;;;;7.43;2.90;;;21.40;99.90;;;21.97;100.00;101147.88;5220943;28;20037;-52
2023/07/09 00:25:53;;;;;;;4.78;3.10;;;21.50;99.90;;;21.95;100.00;101140.81;5221276;28;20147;-52
2023/07/09 00:28:26;;;;;;;5.32;2.80;;;21.40;99.90;;;21.95;100.00;101147.91;5220945;28;20505;-51
2023/07/09 00:30:58;;;;;;;5.90;2.90;;;21.40;99.90;;;21.95;100.00;101154.09;5220585;28;20059;-52
2023/07/09 00:33:32;;;;;;;4.10;2.70;;;21.40;99.90;;;21.96;100.00;101149.66;5221209;28;20041;-52
2023/07/09 00:36:14;;;;;;;4.95;2.88;;;21.40;99.90;;;21.96;100.00;101152.31;5220854;28;20140;-52
2023/07/09 00:38:48;;;;;;;5.45;3.05;;;21.40;99.90;;;21.95;100.00;101150.56;5220586;28;20063;-52
2023/07/09 00:41:22;;;;;;;;;;;21.40;99.90;;;21.90;100.00;101147.91;5220854;28;20079;-54
2023/07/09 00:43:55;;;;;;;4.90;3.15;;;21.40;99.90;;;21.87;100.00;101145.28;5221004;28;20289;-51
2023/07/09 00:47:18;;;;;;;4.70;2.65;;;21.30;99.90;;;21.81;100.00;101145.34;5220803;28;20132;-52
2023/07/09 00:50:02;;;;;;;5.90;2.60;;;21.30;99.90;;;21.77;100.00;101146.22;5193870;28;20141;-53
2023/07/09 00:52:40;;;;;;;5.13;3.33;;;21.20;99.90;;;21.72;100.00;101140.09;5220323;28;20391;-52
2023/07/09 00:55:19;;;;;;;5.30;3.13;;;21.20;99.90;;;21.67;100.00;101147.19;5220655;28;20051;-52
2023/07/09 00:57:58;;;;;;;5.43;2.95;;;21.10;99.90;;;21.64;100.00;101141.88;5220767;28;20057;-52
2023/07/09 01:00:42;;;;;;;3.95;2.65;;;21.10;99.90;;;21.60;100.00;101138.38;5219691;28;20045;-52
2023/07/09 01:03:27;;;;;;;4.28;2.50;;;21.10;99.90;;;21.57;100.00;101143.69;5223359;28;20052;-52
2023/07/09 01:06:00;;;;;;;4.30;2.72;;;21.10;99.90;;;21.55;100.00;101142.81;5225094;28;20052;-52
2023/07/09 01:08:36;;;;;;;4.65;2.92;;;21.00;99.90;;;21.55;100.00;101147.25;5224307;28;20059;-53
2023/07/09 01:11:24;;;;;;;5.07;2.65;;;21.00;99.90;;;21.55;100.00;101155.19;5223968;28;20147;-53
2023/07/09 01:14:02;;;;;;;4.47;2.80;;;21.00;99.90;;;21.55;100.00;101141.94;5224502;28;20529;-52
2023/07/09 01:16:38;;;;;;;5.07;2.88;;;21.00;99.90;;;21.52;100.00;101141.97;5223722;28;20487;-51
2023/07/09 01:19:16;;;;;;;5.53;2.88;;;21.00;99.90;;;21.51;100.00;101150.78;5223744;28;20533;-53
2023/07/09 01:21:50;;;;;;;10.07;3.30;;;21.00;99.90;;;21.50;100.00;101149.03;5217214;28;20426;-52
2023/07/09 01:24:57;;;;;;;4.78;3.58;;;20.90;99.90;;;21.47;100.00;101146.41;5224569;28;20501;-53
2023/07/09 01:27:34;;;;;;;;;;;20.90;99.90;;;21.43;100.00;101149.94;5224640;28;20041;-52
2023/07/09 01:30:11;;;;;;;4.05;2.47;;;20.90;99.90;;;21.40;100.00;101149.06;5223926;28;20456;-53
2023/07/09 01:32:45;;;;;;;4.82;2.97;;;20.90;99.90;;;21.39;100.00;101146.44;5216519;28;20111;-52
2023/07/09 01:35:21;;;;;;;6.00;2.90;;;20.90;99.90;;;21.35;100.00;101150.84;5223709;28;20151;-51
2023/07/09 01:37:55;;;;;;;4.53;2.67;;;20.80;99.90;;;21.33;100.00;101154.41;5224107;28;20540;-53
2023/07/09 01:40:29;;;;;;;5.30;3.53;;;20.80;99.90;;;21.29;100.00;101155.31;5224893;28;20466;-52
2023/07/09 01:43:06;;;;;;;;;;;20.70;99.90;;;21.25;100.00;101159.69;5224790;28;20540;-52
2023/07/09 01:45:38;;;;;;;4.93;2.85;;;20.70;99.90;;;21.22;100.00;101161.47;5223869;28;19967;-52
2023/07/09 01:48:14;;;;;;;5.03;2.90;;;20.70;99.90;;;21.21;100.00;101160.59;5224406;28;20766;-51
2023/07/09 01:50:50;;;;;;;5.97;2.83;;;20.70;99.90;;;21.19;100.00;101161.47;5216585;28;20048;-52
2023/07/09 01:53:27;;;;;;;4.40;2.50;;;20.60;99.90;;;21.13;100.00;101157.97;5223963;28;20057;-52
2023/07/09 01:56:00;;;;;;;5.63;2.63;;;20.70;99.90;;;21.12;100.00;101157.97;5224343;28;20091;-52
2023/07/09 01:58:32;;;;;;;5.07;3.58;;;20.60;99.90;;;21.10;100.00;101159.75;5223058;28;20440;-52
2023/07/09 02:01:05;;;;;;;4.93;3.13;;;20.60;99.90;;;21.08;100.00;101157.09;5223480;28;20045;-52
2023/07/09 02:03:39;;;;;;;5.32;3.30;;;20.60;99.90;;;21.07;100.00;101159.75;5223580;28;20407;-51
2023/07/09 02:06:12;;;;;;;6.50;2.80;;;20.50;99.90;;;21.06;100.00;101157.97;5225113;28;20051;-52
2023/07/09 02:08:46;;;;;;;4.32;2.80;;;20.60;99.90;;;21.07;100.00;101165.06;5223266;28;20414;-53
2023/07/09 02:11:21;;;;;;;4.53;2.90;;;20.50;99.90;;;21.06;100.00;101171.22;5222903;28;20076;-53
2023/07/09 02:13:53;;;;;;;4.50;2.75;;;20.50;99.90;;;21.07;100.00;101163.28;5223300;28;20083;-52
2023/07/09 02:16:26;;;;;;;4.40;2.53;;;20.60;99.90;;;21.08;100.00;101167.72;5223133;28;20053;-52
2023/07/09 02:18:58;;;;;;;4.80;2.65;;;20.60;99.90;;;21.07;100.00;101175.66;5222982;28;20053;-51
2023/07/09 02:21:31;;;;;;;4.50;2.70;;;20.60;99.90;;;21.04;100.00;101170.34;5223184;28;20048;-52
2023/07/09 02:24:06;;;;;;;4.93;2.65;;;20.50;99.90;;;21.02;100.00;101166.84;5223702;28;20060;-51
2023/07/09 02:26:39;;;;;;;4.55;2.58;;;20.50;99.90;;;21.00;100.00;101163.31;5223185;28;20049;-52
2023/07/09 02:29:11;;;;;;;4.57;2.50;;;20.50;99.90;;;20.98;100.00;101162.41;5222773;28;20055;-51
2023/07/09 02:31:49;;;;;;;4.60;2.67;;;20.50;99.90;;;20.96;100.00;101166.84;5222573;28;20521;-51
2023/07/09 02:34:25;;;;;;;5.43;3.13;;;20.40;99.90;;;20.93;100.00;101164.19;5222839;28;20052;-52
2023/07/09 02:36:59;;;;;;;4.68;2.78;;;20.40;99.90;;;20.92;100.00;101168.59;5223458;28;20414;-52
2023/07/09 02:39:37;;;;;;;4.80;2.45;;;20.40;99.90;;;20.90;100.00;101167.75;5222565;28;20065;-52
2023/07/09 02:42:11;;;;;;;4.18;2.78;;;20.40;99.90;;;20.86;100.00;101166.88;5223109;28;20049;-52
2023/07/09 02:44:45;;;;;;;4.43;2.58;;;20.40;99.90;;;20.85;100.00;101174.81;5223045;28;20047;-52
2023/07/09 02:47:19;;;;;;;4.38;2.80;;;20.40;99.90;;;20.81;100.00;101173.06;5222776;28;20076;-52
2023/07/09 02:49:52;;;;;;;4.50;2.40;;;20.30;99.90;;;20.78;100.00;101173.94;5222885;28;20071;-53
2023/07/09 02:52:24;;;;;;;4.18;2.60;;;20.30;99.90;;;20.76;100.00;101175.72;5222680;28;20077;-52
2023/07/09 02:54:58;;;;;;;4.90;2.95;;;20.20;99.90;;;20.75;100.00;101176.59;5223068;28;20405;-52
2023/07/09 02:57:30;;;;;;;4.07;2.47;;;20.30;99.90;;;20.73;100.00;101181.00;5223981;28;20047;-51
2023/07/09 03:00:05;;;;;;;5.75;3.00;;;20.20;99.90;;;20.69;100.00;101179.25;5222310;28;20140;-52
2023/07/09 03:02:37;;;;;;;5.90;2.63;;;20.20;99.90;;;20.68;100.00;101177.50;5222477;28;20052;-51
2023/07/09 03:05:10;;;;;;;4.72;2.97;;;20.20;99.90;;;20.69;100.00;101178.38;5222617;28;20055;-53
2023/07/09 03:07:43;;;;;;;4.45;2.65;;;20.20;99.90;;;20.69;100.00;101181.91;5222473;28;20402;-52
2023/07/09 03:10:17;;;;;;;5.30;3.08;;;20.20;99.90;;;20.70;100.00;101186.31;5222259;28;20049;-52
2023/07/09 03:12:49;;;;;;;4.20;2.42;;;20.20;99.90;;;20.70;100.00;101191.59;5222573;28;20053;-51
2023/07/09 03:15:22;;;;;;;4.47;2.42;;;20.20;99.90;;;20.69;100.00;101189.84;5222055;28;20132;-52
2023/07/09 03:17:54;;;;;;;4.53;2.90;;;20.20;99.90;;;20.67;100.00;101202.22;5222621;28;20049;-52
2023/07/09 03:20:26;;;;;;;4.18;2.63;;;20.20;99.90;;;20.63;100.00;101205.72;5221283;28;20068;-52
2023/07/09 03:22:59;;;;;;;4.07;2.47;;;20.10;99.90;;;20.58;100.00;101208.38;5223621;28;20078;-52
2023/07/09 03:25:33;;;;;;;5.85;2.92;;;20.10;99.90;;;20.55;100.00;101205.75;5221176;28;20045;-52
2023/07/09 03:28:05;;;;;;;4.30;2.83;;;20.10;99.90;;;20.54;100.00;101205.75;5222074;28;20530;-52
2023/07/09 03:30:42;;;;;;;4.90;2.83;;;20.10;99.90;;;20.53;100.00;101209.25;5221512;28;20148;-52
2023/07/09 03:33:16;;;;;;;4.60;2.60;;;20.00;99.90;;;20.52;100.00;101211.00;5222183;28;20540;-51
2023/07/09 03:35:49;;;;;;;5.40;2.95;;;20.00;99.90;;;20.52;100.00;101211.00;5222045;28;20052;-52
2023/07/09 03:38:22;;;;;;;6.28;3.22;;;20.00;99.90;;;20.52;100.00;101212.78;5221479;28;20449;-52
2023/07/09 03:40:56;;;;;;;4.68;2.83;;;20.00;99.90;;;20.49;100.00;101212.78;5213923;28;20126;-52
2023/07/09 03:43:28;;;;;;;;;;;20.00;99.90;;;20.48;100.00;101216.34;5222287;28;20143;-52
2023/07/09 03:46:01;;;;;;;4.13;2.53;;;20.00;99.90;;;20.47;100.00;101214.53;5222103;28;20007;-52
2023/07/09 03:48:33;;;;;;;4.25;2.63;;;20.00;99.90;;;20.46;100.00;101213.66;5221492;28;20118;-52
2023/07/09 03:51:06;;;;;;;5.72;3.05;;;20.00;99.90;;;20.45;100.00;101218.97;5221504;28;20052;-52
2023/07/09 03:53:38;;;;;;;4.55;2.60;;;20.00;99.90;;;20.44;100.00;101222.47;5221548;28;20057;-51
2023/07/09 03:56:12;;;;;;;4.88;2.88;;;20.00;99.90;;;20.44;100.00;101225.09;5221847;28;20533;-52
2023/07/09 03:58:44;;;;;;;5.60;2.88;;;20.00;99.90;;;20.43;100.00;101224.22;5221188;28;20068;-52
2023/07/09 04:01:17;;;;;;;5.90;3.28;;;20.00;99.90;;;20.43;100.00;101224.22;5221107;28;20049;-52
2023/07/09 04:03:49;;;;;;;4.88;3.03;;;20.00;99.90;;;20.44;100.00;101223.34;5221346;28;20067;-52
2023/07/09 04:06:22;;;;;;;4.55;3.03;;;20.00;99.90;;;20.47;100.00;101228.66;5221508;28;20052;-52
2023/07/09 04:08:54;;;;;;;6.43;3.00;;;20.00;99.90;;;20.50;100.00;101235.75;5221219;28;20567;-52
2023/07/09 04:11:28;;;;;;;5.75;2.92;;;20.00;99.90;;;20.51;100.00;101232.22;5221237;28;20044;-51
2023/07/09 04:14:00;;;;;;;3.58;2.50;;;20.00;99.90;;;20.50;100.00;101230.44;5221878;28;20135;-51
2023/07/09 04:16:32;;;;;;;4.68;2.67;;;20.10;99.90;;;20.51;100.00;101234.84;5221134;28;20059;-52
2023/07/09 04:19:05;;;;;;;5.18;3.03;;;20.00;99.90;;;20.53;100.00;101235.72;5220814;28;20445;-52
2023/07/09 04:21:37;;;;;;;6.03;2.90;;;20.00;99.90;;;20.52;100.00;101234.84;5221418;28;20049;-51
2023/07/09 04:24:10;;;;;;;6.25;3.10;;;20.10;99.90;;;20.55;100.00;101234.88;5221060;28;20053;-51
2023/07/09 04:26:43;;;;;;;4.18;2.90;;;20.10;99.90;;;20.56;100.00;101238.41;5221076;28;20162;-51
2023/07/09 04:29:16;;;;;;;6.15;3.10;;;20.10;99.90;;;20.57;100.00;101232.22;5220806;28;20078;-51
2023/07/09 04:31:48;;;;;;;5.15;3.03;;;20.10;99.90;;;20.59;100.00;101233.09;5221000;28;20049;-51
2023/07/09 04:34:20;;;;;;;5.90;3.00;;;20.10;99.90;;;20.61;100.00;101226.06;5221292;28;20048;-51
2023/07/09 04:36:53;;;;;;;7.85;3.15;;;20.10;99.90;;;20.65;100.00;101238.38;5220703;28;20351;-51
2023/07/09 04:39:25;;;;;;;6.75;3.15;;;20.20;99.90;;;20.67;100.00;101234.00;5220907;28;20132;-52
2023/07/09 04:41:59;;;;;;;5.70;3.22;;;20.20;99.90;;;20.71;100.00;101229.56;5213146;28;20045;-51
2023/07/09 04:44:32;;;;;;;4.30;3.10;;;20.20;99.90;;;20.75;100.00;101234.00;5220855;28;20134;-52
2023/07/09 04:47:05;;;;;;;5.57;3.22;;;20.30;99.90;;;20.78;100.00;101231.34;5221115;28;20053;-51
2023/07/09 04:49:41;;;;;;;5.00;2.97;;;20.30;99.90;;;20.84;100.00;101231.34;5220471;28;20522;-51
2023/07/09 04:52:15;;;;;;;4.45;2.92;;;20.40;99.90;;;20.91;100.00;101221.63;5220974;28;20103;-51
2023/07/09 04:54:47;;;;;;;5.70;3.33;;;20.40;99.90;;;20.98;100.00;101228.66;5220988;28;20053;-52
2023/07/09 04:57:21;;;;;;;5.45;3.90;;;20.50;99.90;;;21.15;100.00;101229.53;5220491;28;20410;-51
2023/07/09 04:59:56;;;;;;;5.93;3.70;;;20.60;99.90;;;21.37;100.00;101235.69;5220176;28;20053;-52
2023/07/09 05:02:29;;;;;;;7.20;3.67;;;20.80;99.90;;;21.59;100.00;101237.41;5220726;28;20053;-52
2023/07/09 05:05:01;;;;;;;8.35;4.00;;;21.00;99.90;;;21.80;100.00;101227.59;5213234;28;20056;-52
2023/07/09 05:07:34;;;;;;;6.97;3.70;;;21.20;99.90;;;22.02;100.00;101234.56;5220264;28;20091;-52
2023/07/09 05:10:07;;;;;;;5.95;3.80;;;21.40;99.90;;;22.24;100.00;101230.06;5220495;28;20044;-52
2023/07/09 05:12:50;;;;;;;6.30;3.50;;;21.60;99.90;;;22.43;100.00;101225.47;5220606;28;20037;-52
2023/07/09 05:15:24;;;;;;;6.90;3.72;;;21.80;99.90;;;22.62;100.00;101220.91;5220828;28;20055;-52
2023/07/09 05:17:59;;;;;;;5.70;3.47;;;22.00;99.90;;;22.76;100.00;101219.03;5220656;28;20067;-53
2023/07/09 05:20:31;;;;;;;7.90;3.58;;;22.10;99.90;;;22.92;100.00;101222.47;5219658;28;20053;-52
2023/07/09 05:23:04;;;;;;;6.47;3.83;;;22.30;99.90;;;23.06;100.00;101225.00;5220674;28;20045;-52
2023/07/09 05:25:37;;;;;;;7.18;3.72;;;22.40;99.90;;;23.21;100.00;101228.41;5220355;28;20095;-52
2023/07/09 05:28:11;;;;;;;7.65;3.70;;;22.60;99.90;;;23.32;100.00;101230.03;5220309;28;20529;-53
2023/07/09 05:30:44;;;;;;;7.28;3.80;;;22.70;99.90;;;23.43;100.00;101234.34;5219878;28;20049;-54
2023/07/09 05:33:16;;;;;;;6.15;3.83;;;22.80;99.90;;;23.56;100.00;101235.97;5220576;28;20383;-52
2023/07/09 05:35:48;;;;;;;6.25;3.70;;;22.90;99.90;;;23.69;100.00;101230.53;5220367;28;20514;-53
2023/07/09 05:38:21;;;;;;;6.55;3.78;;;23.00;99.90;;;23.82;100.00;101234.81;5220367;28;20401;-53
2023/07/09 05:41:02;;;;;;;6.05;2.97;;;23.10;99.90;;;23.93;100.00;101235.56;5219776;28;20052;-53
2023/07/09 05:43:36;;;;;;;5.88;3.03;;;23.20;99.90;;;24.03;100.00;101237.19;5220061;28;20044;-52
2023/07/09 05:46:08;;;;;;;7.70;3.78;;;23.40;99.90;;;24.14;100.00;101234.38;5220285;28;20048;-53
2023/07/09 05:48:41;;;;;;;6.80;3.78;;;23.50;99.90;;;24.28;100.00;101231.50;5221966;28;20055;-53
2023/07/09 05:51:13;;;;;;;6.32;3.65;;;23.50;99.90;;;24.41;100.00;101227.78;5223591;28;20049;-53
2023/07/09 05:53:46;;;;;;;7.22;3.67;;;23.70;99.90;;;24.51;100.00;101229.38;5223765;28;20045;-52
2023/07/09 05:56:18;;;;;;;4.25;2.83;;;23.80;99.90;;;24.65;100.00;101231.88;5223993;28;20536;-53
2023/07/09 05:58:52;;;;;;;8.85;3.72;;;23.90;99.90;;;24.78;100.00;101233.41;5223580;28;20037;-52
2023/07/09 06:01:25;;;;;;;6.95;3.50;;;24.00;99.90;;;24.87;100.00;101233.25;5224048;28;20077;-53
2023/07/09 06:03:57;;;;;;;5.30;3.17;;;24.10;99.90;;;25.04;100.00;101233.00;5223772;28;20051;-51
2023/07/09 06:06:30;;;;;;;6.20;3.88;;;24.30;99.90;;;25.20;100.00;101230.03;5223929;28;20402;-52
2023/07/09 06:09:02;;;;;;;6.03;3.38;;;24.40;99.90;;;25.34;100.00;101238.66;5223252;28;20059;-51
2023/07/09 06:11:35;;;;;;;6.25;3.33;;;24.60;99.90;;;25.47;100.00;101240.16;5223782;28;20041;-50
2023/07/09 06:14:11;;;;;;;7.20;3.42;;;24.70;99.90;;;25.59;100.00;101234.59;5223998;28;20060;-52
2023/07/09 06:16:44;;;;;;;6.97;3.42;;;24.80;99.90;;;25.68;100.00;101239.72;5223829;28;20040;-50
2023/07/09 06:19:16;;;;;;;7.88;3.22;;;24.90;99.90;;;25.78;100.00;101237.78;5223608;28;20052;-50
2023/07/09 06:21:49;;;;;;;7.03;3.22;;;25.00;99.90;;;25.84;100.00;101234.13;5223784;28;20064;-50
2023/07/09 06:24:21;;;;;;;5.80;3.45;;;25.10;99.90;;;25.94;100.00;101233.00;5224070;28;20135;-50
2023/07/09 06:26:54;;;;;;;6.05;2.83;;;25.20;99.90;;;26.13;100.00;101234.34;5223560;28;21887;-50
2023/07/09 06:29:27;;;;;;;6.90;3.65;;;25.30;99.90;;;26.33;100.00;101241.91;5223554;28;20063;-50
2023/07/09 06:32:00;;;;;;;5.80;3.08;;;25.50;99.90;;;26.47;100.00;101246.94;5223539;28;20525;-50
2023/07/09 06:34:32;;;;;;;6.35;3.88;;;25.60;99.90;;;26.61;100.00;101244.84;5223725;28;20429;-51
2023/07/09 06:37:05;;;;;;;4.22;2.78;;;25.80;99.90;;;26.64;98.11;101247.44;5223712;28;20090;-50
2023/07/09 06:39:39;;;;;;;6.35;3.20;;;25.80;99.90;;;26.73;99.17;101249.00;5223165;28;20106;-50
2023/07/09 06:42:12;;;;;;;4.32;2.70;;;25.90;99.90;;;26.83;98.21;101245.19;5223330;28;20049;-50
2023/07/09 06:45:05;;;;;;;4.85;2.92;;;26.00;99.90;;;26.95;97.83;101246.66;5223602;28;20060;-51
2023/07/09 06:47:37;;;;;;;6.55;3.00;;;26.10;99.90;;;27.07;97.95;101242.84;5223474;28;20037;-50
2023/07/09 06:50:13;;;;;;;4.50;2.80;;;26.20;99.90;;;27.21;96.32;101246.91;5223511;28;20103;-50
2023/07/09 06:52:45;;;;;;;6.13;3.20;;;26.40;99.90;;;27.36;94.91;101239.34;5223224;28;20064;-50
2023/07/09 06:55:18;;;;;;;5.60;3.05;;;26.50;99.90;;;27.53;93.28;101239.78;5223488;28;20048;-50
2023/07/09 06:57:50;;;;;;;4.55;2.63;;;26.60;99.90;;;27.69;92.00;101248.25;5223283;28;20541;-50
2023/07/09 07:00:24;;;;;;;7.25;3.38;;;26.80;99.60;;;27.83;90.92;101249.59;5223343;28;20620;-50
2023/07/09 07:02:56;;;;;;;;;;;26.90;99.20;;;27.94;90.55;101243.94;5223389;28;20152;-48
2023/07/09 07:05:29;;;;;;;5.90;2.80;;;27.10;99.00;;;28.13;90.21;101249.63;5223148;28;19925;-50
2023/07/09 07:08:01;;;;;;;6.80;3.05;;;27.10;98.90;;;28.23;89.24;101245.72;5223086;28;20048;-50
2023/07/09 07:10:34;;;;;;;4.95;2.90;;;27.20;98.50;;;28.34;89.42;101243.63;5223022;28;20049;-50
2023/07/09 07:13:06;;;;;;;4.63;2.75;;;27.30;98.50;;;28.48;88.33;101239.59;5222763;28;20044;-50
2023/07/09 07:15:41;;;;;;;5.38;2.90;;;27.50;98.10;;;28.60;88.61;101233.84;5222876;28;20045;-50
2023/07/09 07:18:13;;;;;;;8.32;2.90;;;27.60;98.20;;;28.72;89.09;101233.44;5223027;28;20593;-50
2023/07/09 07:20:45;;;;;;;6.38;3.20;;;27.70;98.40;;;28.82;88.25;101236.69;5223866;28;20059;-48
2023/07/09 07:23:18;;;;;;;5.05;3.08;;;27.80;97.90;;;28.91;88.86;101234.59;5221069;28;20510;-48
2023/07/09 07:25:51;;;;;;;6.22;3.10;;;27.90;98.10;;;28.92;87.16;101236.34;5221368;28;20044;-48
2023/07/09 07:28:24;;;;;;;6.30;2.90;;;27.90;97.60;;;29.06;86.53;101233.19;5221801;28;20091;-49
2023/07/09 07:31:02;;;;;;;7.47;3.00;;;28.00;97.20;;;29.17;85.41;101231.00;5216738;28;20076;-48
2023/07/09 07:33:35;;;;;;;4.60;2.95;;;28.10;96.80;;;29.28;83.78;101224.38;5222055;28;20398;-49
2023/07/09 07:36:08;;;;;;;4.93;2.80;;;28.20;96.10;;;29.34;82.95;101227.72;5222301;28;20052;-49
2023/07/09 07:38:41;;;;;;;5.00;3.00;;;28.30;95.50;;;29.48;85.24;101226.34;5221368;28;20037;-48
2023/07/09 07:41:13;;;;;;;4.88;2.95;;;28.40;96.20;;;29.62;86.00;101232.13;5221641;28;20056;-49
2023/07/09 07:43:46;;;;;;;5.70;2.95;;;28.50;96.50;;;29.76;84.41;101234.28;5221605;28;20041;-49
2023/07/09 07:46:19;;;;;;;5.35;3.05;;;28.60;95.90;;;29.81;82.36;101233.16;5221698;28;20056;-49
2023/07/09 07:48:52;;;;;;;5.68;3.00;;;28.80;95.20;;;29.95;82.88;101225.44;5221524;28;20045;-48
2023/07/09 07:51:24;;;;;;;5.63;2.95;;;28.80;95.20;;;30.10;82.42;101233.88;5216750;28;20045;-50
2023/07/09 07:53:57;;;;;;;5.45;3.30;;;29.00;95.00;;;30.18;83.10;101237.13;5237496;28;20410;-49
2023/07/09 07:56:30;;;;;;;5.65;3.13;;;29.00;95.00;;;30.34;84.09;101226.66;5221305;28;20104;-50
2023/07/09 07:59:02;;;;;;;4.55;2.70;;;29.10;95.50;;;30.56;83.45;101232.88;5220932;28;20517;-50
2023/07/09 08:01:36;;;;;;;5.25;3.00;;;29.30;95.30;;;30.74;80.29;101229.47;5221277;28;20048;-49
2023/07/09 08:04:12;;;;;;;5.00;3.22;;;29.50;94.00;;;30.90;78.67;101224.28;5221124;28;20414;-48
2023/07/09 08:06:44;;;;;;;7.18;3.25;;;29.60;93.20;;;31.19;77.20;101227.53;5220918;28;20040;-49
2023/07/09 08:09:17;;;;;;;7.07;2.90;;;29.80;92.60;;;31.36;75.43;101230.38;5219727;28;20049;-49
2023/07/09 08:11:50;;;;;;;4.07;2.70;;;30.00;91.50;;;31.65;76.14;101231.75;5217925;28;20091;-49
2023/07/09 08:14:25;;;;;;;4.95;3.20;;;30.20;91.60;;;32.08;76.80;101236.03;5219302;28;20409;-50
2023/07/09 08:16:59;;;;;;;5.13;2.90;;;30.50;92.00;;;32.49;74.39;101221.50;5219999;28;20037;-49
2023/07/09 08:19:32;;;;;;;4.97;2.83;;;30.80;91.20;;;32.85;72.49;101227.72;5220825;28;20410;-50
2023/07/09 08:22:07;;;;;;;5.13;2.80;;;31.00;90.40;;;33.32;71.94;101220.81;5213841;28;20532;-50
2023/07/09 08:24:40;;;;;;;6.18;3.10;;;31.30;90.00;;;33.86;71.67;101213.41;5229584;28;20044;-50
2023/07/09 08:27:12;;;;;;;6.55;2.92;;;31.60;90.10;;;34.29;68.99;101218.13;5220474;28;20131;-50
2023/07/09 08:29:45;;;;;;;5.60;3.28;;;31.90;87.60;;;34.63;66.56;101218.03;5220622;28;20411;-49
2023/07/09 08:32:22;;;;;;;6.85;2.92;;;32.10;84.90;;;34.79;65.33;101208.91;5218816;28;20068;-50
2023/07/09 08:34:54;;;;;;;6.60;3.00;;;32.30;82.40;;;35.46;64.87;101224.75;5212971;28;20046;-51
2023/07/09 08:37:26;;;;;;;3.85;2.40;;;32.60;83.20;;;36.19;62.73;101213.72;5220851;28;20033;-49
2023/07/09 08:39:59;;;;;;;4.72;2.70;;;33.00;81.70;;;36.83;60.64;101215.72;5220654;28;20056;-51
2023/07/09 08:42:37;;;;;;;4.45;2.60;;;33.50;80.00;;;37.41;58.02;101216.28;5220870;28;20048;-50
2023/07/09 08:45:26;;;;;;;4.40;2.72;;;33.80;77.50;;;37.94;55.70;101208.81;5219285;28;20041;-51
2023/07/09 08:48:06;;;;;;;5.57;3.10;;;34.40;74.50;;;38.65;54.76;101205.28;5234360;28;20358;-50
2023/07/09 08:50:44;;;;;;;5.32;2.80;;;35.00;72.80;;;39.26;52.73;101210.59;5220486;28;20041;-51
2023/07/09 08:53:26;;;;;;;6.93;2.72;;;35.60;70.50;;;39.83;52.05;101215.06;5218611;28;20502;-51
2023/07/09 08:56:00;;;;;;;3.63;2.33;;;36.20;68.60;;;40.21;50.51;101211.06;5233926;28;20054;-52
2023/07/09 08:58:33;;;;;;;6.68;2.80;;;36.60;66.40;;;40.76;50.43;101211.88;5220744;28;20045;-50
2023/07/09 09:01:16;;;;;;;5.60;2.70;;;37.10;65.60;;;41.24;48.60;101200.41;5219679;28;20059;-50
2023/07/09 09:03:52;;;;;;;5.15;2.80;;;37.50;63.90;;;41.67;47.61;101216.59;5220059;28;20071;-52
2023/07/09 09:06:31;;;;;;;6.40;2.92;;;37.90;62.60;;;41.85;47.14;101214.13;5220541;28;20037;-52
2023/07/09 09:09:16;;;;;;;4.15;2.95;;;38.20;61.40;;;41.70;46.93;101211.75;5219939;28;20473;-52
2023/07/09 09:11:59;;;;;;;3.83;2.47;;;38.20;60.50;;;42.07;47.28;101213.91;5219324;28;20048;-50
2023/07/09 09:14:40;;;;;;;5.45;2.85;;;38.50;60.70;;;42.44;45.80;101208.63;5215317;28;20045;-51
2023/07/09 09:17:16;;;;;;;6.45;3.10;;;38.70;59.60;;;42.50;45.33;101204.44;5219446;28;20044;-52
2023/07/09 09:19:56;;;;;;;6.93;2.90;;;38.80;58.40;;;42.13;45.34;101202.38;5219557;28;20522;-50
2023/07/09 09:22:42;;;;;;;4.40;2.85;;;38.70;58.00;;;41.76;45.10;101188.47;5220424;28;20041;-51
2023/07/09 09:25:24;;;;;;;4.45;3.03;;;38.50;57.60;;;41.40;45.97;101184.38;5221294;28;20426;-51
2023/07/09 09:27:57;;;;;;;6.18;3.20;;;38.40;58.00;;;40.98;46.54;101181.69;5217013;28;20477;-51
2023/07/09 09:30:31;;;;;;;4.78;2.63;;;38.00;58.20;;;40.65;47.82;101180.88;5213404;28;20037;-50
2023/07/09 09:33:08;;;;;;;4.32;2.40;;;37.90;58.60;;;40.03;48.36;101189.75;5223453;28;20553;-50
2023/07/09 09:35:45;;;;;;;7.30;2.92;;;37.60;58.90;;;39.59;49.63;101179.72;5224263;28;20055;-51
2023/07/09 09:38:20;;;;;;;6.50;2.95;;;37.50;59.80;;;38.63;49.90;101173.69;5223688;28;20049;-51
2023/07/09 09:41:00;;;;;;;6.00;3.40;;;36.90;59.20;;;37.94;51.45;101181.59;5224180;28;20041;-51
2023/07/09 09:43:34;;;;;;;4.90;2.85;;;36.50;60.30;;;37.22;53.27;101184.06;5219104;28;20099;-51
2023/07/09 09:46:08;;;;;;;5.72;2.90;;;36.00;61.10;;;36.77;54.49;101179.97;5216345;28;20528;-50
2023/07/09 09:48:40;;;;;;;4.60;2.97;;;35.70;62.10;;;36.36;55.32;101179.06;5222075;28;20140;-49
2023/07/09 09:51:15;;;;;;;5.50;2.90;;;35.30;62.80;;;36.29;57.09;101168.75;5222079;28;20090;-50
2023/07/09 09:53:52;;;;;;;4.07;2.75;;;35.10;64.10;;;36.30;57.78;101165.06;5219171;28;20049;-51
2023/07/09 09:56:30;;;;;;;4.47;2.67;;;35.10;65.50;;;36.27;57.70;101163.44;5218757;28;20048;-49
2023/07/09 09:59:03;;;;;;;4.63;2.70;;;35.10;65.10;;;36.32;57.96;101163.09;5223532;28;20297;-51
2023/07/09 10:01:37;;;;;;;4.60;2.65;;;35.00;65.80;;;36.37;59.74;101156.38;5220063;28;20041;-50
2023/07/09 10:04:18;;;;;;;4.30;2.67;;;35.10;67.10;;;36.35;58.25;101150.19;5222216;28;20053;-50
2023/07/09 10:06:57;;;;;;;5.20;2.80;;;35.10;65.80;;;36.30;56.98;101149.63;5219247;28;20037;-50
2023/07/09 10:09:46;;;;;;;4.95;2.88;;;35.10;65.10;;;36.28;56.44;101143.44;5227281;28;20076;-50
2023/07/09 10:12:38;;;;;;;5.22;2.80;;;35.10;64.60;;;36.27;55.00;101132.69;5240247;28;20049;-50
2023/07/09 10:15:26;;;;;;;5.35;3.03;;;35.10;63.20;;;36.31;56.61;101126.94;5223698;28;20140;-51
2023/07/09 10:18:04;;;;;;;5.80;2.80;;;35.10;64.70;;;36.46;57.06;101118.78;5172710;28;20054;-51
2023/07/09 10:20:41;;;;;;;5.60;2.72;;;35.20;65.20;;;36.47;55.84;101115.94;5204237;28;20069;-50
2023/07/09 10:23:31;;;;;;;4.80;2.80;;;35.20;63.90;;;36.55;56.44;101119.00;5202436;28;20406;-51
2023/07/09 10:26:15;;;;;;;6.93;3.08;;;35.30;64.50;;;36.38;54.71;101122.88;5203234;28;20049;-50
2023/07/09 10:29:18;;;;;;;5.82;3.10;;;35.20;62.80;;;36.45;54.08;101112.47;5202289;28;20144;-50
2023/07/09 10:32:00;;;;;;;6.13;2.78;;;35.30;62.80;;;36.52;54.22;101116.50;5197624;28;20049;-51
2023/07/09 10:34:42;;;;;;;5.18;2.47;;;35.20;62.50;;;36.65;54.66;101114.69;5213069;28;20065;-51
2023/07/09 10:37:53;;;;;;;3.53;2.53;;;35.40;62.70;;;36.80;54.33;101111.88;5215245;28;20056;-50
2023/07/09 10:40:38;;;;;;;3.90;2.30;;;35.50;62.60;;;36.90;53.35;101122.00;5194964;28;20052;-51
2023/07/09 10:43:21;;;;;;;4.00;2.50;;;35.60;61.80;;;37.05;55.00;101117.34;5200493;28;20056;-50